Time;durP1;ratioP1;P1;durP2;ratioP2;P2;SDS_P1;SDS_P2;PMS_P1;PMS_P2;Temp;Humidity;BMP_temperature;BMP_pressure;BME280_temperature;BME280_humidity;BME280_pressure;Samples;Min_cycle;Max_cycle;Signal;HPM_P1;HPM_P2
2022/06/01 00:02:22;;;;;;;0.70;0.70;;;22.50;41.00;;;26.37;27.00;100994.31;5092922;28;20050;-19
2022/06/01 00:04:47;;;;;;;0.98;0.80;;;22.50;41.00;;;26.42;27.07;100997.44;5092361;28;20492;-20
2022/06/01 00:07:13;;;;;;;0.90;0.80;;;22.50;41.00;;;26.39;27.06;101001.22;5093251;28;20044;-20
2022/06/01 00:09:40;;;;;;;0.77;0.77;;;22.50;41.00;;;26.38;26.90;100993.31;5093115;28;20051;-20
2022/06/01 00:12:07;;;;;;;0.85;0.70;;;22.50;41.00;;;26.40;27.04;101002.09;5093466;28;20055;-19
2022/06/01 00:14:33;;;;;;;0.60;0.60;;;22.60;41.10;;;26.36;26.79;100995.28;5092439;28;20044;-19
2022/06/01 00:16:59;;;;;;;0.77;0.70;;;22.50;41.00;;;26.38;26.88;100996.00;5092873;28;20052;-20
2022/06/01 00:19:25;;;;;;;0.60;0.60;;;22.50;41.00;;;26.39;27.03;100995.03;5092678;28;20048;-20
2022/06/01 00:24:37;;;;;;;0.80;0.60;;;22.50;41.00;;;26.38;26.87;100998.66;5092994;28;20048;-20
2022/06/01 00:27:05;;;;;;;0.60;0.60;;;22.50;41.00;;;26.33;26.95;100993.72;5092649;28;20500;-20
2022/06/01 00:29:31;;;;;;;1.05;0.70;;;22.50;41.10;;;26.34;27.09;100991.88;5092580;28;20051;-20
2022/06/01 00:31:57;;;;;;;0.60;0.60;;;22.50;41.10;;;26.35;26.99;100994.44;5092350;28;20056;-19
2022/06/01 00:34:22;;;;;;;0.85;0.85;;;22.50;41.10;;;26.31;27.00;100987.63;5092751;28;20055;-20
2022/06/01 00:36:48;;;;;;;0.88;0.88;;;22.50;41.10;;;26.37;26.94;100997.00;5092389;28;20500;-19
2022/06/01 00:39:14;;;;;;;0.90;0.80;;;22.50;41.10;;;26.37;27.00;100995.16;5092576;28;20055;-20
2022/06/01 00:41:40;;;;;;;1.25;0.98;;;22.50;41.10;;;26.37;26.91;100991.63;5096492;28;20366;-20
2022/06/01 00:44:06;;;;;;;0.82;0.70;;;22.50;41.10;;;26.34;27.02;100997.25;5096034;28;20055;-20
2022/06/01 00:46:32;;;;;;;0.68;0.68;;;22.50;41.10;;;26.32;27.01;100983.97;5096054;28;20419;-20
2022/06/01 00:49:13;;;;;;;0.60;0.60;;;22.50;41.10;;;26.34;27.05;100986.50;5095898;28;20484;-20
2022/06/01 00:51:39;;;;;;;1.45;1.05;;;22.50;41.10;;;26.35;26.76;100982.88;5096233;28;20476;-19
2022/06/01 00:54:05;;;;;;;0.60;0.60;;;22.50;41.10;;;26.35;26.95;100983.72;5076767;28;20056;-19
2022/06/01 00:56:48;;;;;;;1.42;0.80;;;22.50;41.10;;;26.34;26.88;100981.16;5095881;28;20127;-19
2022/06/01 00:59:23;;;;;;;0.80;0.80;;;22.50;41.10;;;26.34;26.90;100982.00;5077983;28;20437;-19
2022/06/01 01:01:52;;;;;;;1.08;0.98;;;22.50;41.10;;;26.32;26.90;100975.91;5095735;28;20052;-19
2022/06/01 01:04:18;;;;;;;1.45;0.85;;;22.50;41.10;;;26.32;26.85;100977.75;5095624;28;20101;-20
2022/06/01 01:06:44;;;;;;;0.80;0.80;;;22.50;41.10;;;26.28;26.98;100965.56;5077512;28;20400;-20
2022/06/01 01:09:11;;;;;;;0.93;0.77;;;22.50;41.10;;;26.30;26.94;100966.31;5095683;28;20048;-19
2022/06/01 01:11:52;;;;;;;0.75;0.70;;;22.50;41.10;;;26.30;26.94;100971.69;5095531;28;20093;-20
2022/06/01 01:14:23;;;;;;;0.70;0.70;;;22.50;41.10;;;26.32;26.99;100967.88;5095644;28;20131;-19
2022/06/01 01:16:50;;;;;;;0.60;0.60;;;22.50;41.10;;;26.30;26.97;100963.63;5095165;28;20575;-20
2022/06/01 01:19:41;;;;;;;0.90;0.63;;;22.50;41.70;;;26.27;27.27;100961.22;5095345;28;20048;-19
2022/06/01 01:22:34;;;;;;;0.85;0.77;;;22.50;41.10;;;26.30;26.91;100967.16;5077173;28;20471;-19
2022/06/01 01:25:21;;;;;;;0.60;0.60;;;22.50;41.10;;;26.29;27.12;100969.97;5095571;28;20484;-19
2022/06/01 01:27:51;;;;;;;0.73;0.73;;;22.50;41.10;;;26.27;27.03;100958.53;5076894;28;20083;-19
2022/06/01 01:30:37;;;;;;;0.60;0.60;;;22.50;41.10;;;26.30;27.01;100956.44;5095665;28;20062;-20
2022/06/01 01:33:19;;;;;;;0.63;0.63;;;22.50;41.10;;;26.28;27.16;100957.53;5095594;28;20040;-19
2022/06/01 01:35:49;;;;;;;1.08;0.68;;;22.40;41.10;;;26.29;26.91;100953.88;5077163;28;20670;-20
2022/06/01 01:38:45;;;;;;;0.70;0.70;;;22.40;41.10;;;26.31;26.98;100957.28;5095220;28;20060;-19
2022/06/01 01:41:27;;;;;;;0.85;0.70;;;22.40;41.10;;;26.25;26.89;100953.28;5060091;28;20093;-21
2022/06/01 01:44:19;;;;;;;0.60;0.60;;;22.50;41.10;;;26.24;27.10;100948.91;5077037;28;20403;-19
2022/06/01 01:46:49;;;;;;;0.80;0.80;;;22.40;41.10;;;26.22;27.09;100940.97;5075809;28;20049;-20
2022/06/01 01:49:24;;;;;;;2.03;0.70;;;22.40;41.10;;;26.26;26.87;100949.63;5094928;28;20040;-20
2022/06/01 01:51:53;;;;;;;0.80;0.80;;;22.40;41.10;;;26.28;27.09;100946.81;5094918;28;20056;-19
2022/06/01 01:54:49;;;;;;;0.50;0.50;;;22.40;41.10;;;26.26;27.01;100946.94;5094850;28;20056;-19
2022/06/01 01:57:57;;;;;;;0.80;0.80;;;22.40;41.10;;;26.27;27.07;100945.13;5075433;28;20052;-19
2022/06/01 02:00:36;;;;;;;0.93;0.75;;;22.40;41.10;;;26.21;27.13;100941.97;5076726;28;20047;-20
2022/06/01 02:03:30;;;;;;;1.00;0.70;;;22.40;41.10;;;26.24;27.09;100943.53;5061073;28;20040;-20
2022/06/01 02:06:05;;;;;;;1.10;0.70;;;22.40;41.10;;;26.27;26.98;100943.28;5074744;28;20048;-20
2022/06/01 02:09:09;;;;;;;0.93;0.70;;;22.40;41.10;;;26.27;27.14;100951.31;5094658;28;20051;-20
2022/06/01 02:14:52;;;;;;;0.53;0.53;;;22.40;41.20;;;26.27;27.14;100945.13;5077257;28;20044;-19
2022/06/01 02:17:24;;;;;;;0.70;0.70;;;22.40;41.10;;;26.22;27.01;100937.47;5094463;28;20048;-20
2022/06/01 02:20:03;;;;;;;0.65;0.65;;;22.40;41.20;;;26.19;27.16;100935.88;5076345;28;20048;-19
2022/06/01 02:22:28;;;;;;;0.80;0.80;;;22.40;41.20;;;26.23;26.96;100945.38;5076418;28;20044;-19
2022/06/01 02:24:54;;;;;;;0.80;0.63;;;22.40;41.20;;;26.24;27.08;100941.72;5094750;28;20102;-20
2022/06/01 02:27:21;;;;;;;1.10;0.60;;;22.40;41.20;;;26.24;26.90;100952.44;5075302;28;20067;-19
2022/06/01 02:29:57;;;;;;;0.77;0.77;;;22.40;41.20;;;26.22;27.00;100937.47;5094356;28;20135;-19
2022/06/01 02:32:26;;;;;;;1.00;0.60;;;22.40;41.20;;;26.22;27.08;100938.31;5094374;28;20096;-20
2022/06/01 02:34:54;;;;;;;0.90;0.77;;;22.40;41.20;;;26.23;27.09;100944.53;5076462;28;20059;-20
2022/06/01 02:37:22;;;;;;;0.70;0.70;;;22.40;41.20;;;26.20;27.00;100932.22;5076403;28;20055;-21
2022/06/01 02:39:53;;;;;;;0.65;0.65;;;22.30;41.10;;;26.21;27.18;100939.31;5094569;28;20067;-20
2022/06/01 02:42:28;;;;;;;;;;;22.40;41.20;;;26.31;26.84;100931.34;5076757;28;20076;-19
2022/06/01 02:45:04;;;;;;;1.13;0.75;;;22.30;41.10;;;26.23;26.92;100933.81;5094802;28;19962;-19
2022/06/01 02:47:38;;;;;;;0.63;0.63;;;22.30;41.10;;;26.23;27.06;100942.69;5093987;28;20403;-20
2022/06/01 02:50:07;;;;;;;0.68;0.68;;;22.40;41.20;;;26.20;27.04;100937.59;5094163;28;20048;-20
2022/06/01 02:52:32;;;;;;;0.80;0.80;;;22.30;41.10;;;26.24;27.04;100935.50;5074079;28;20075;-20
2022/06/01 02:54:58;;;;;;;1.80;0.70;;;22.30;41.10;;;26.20;27.07;100939.44;5093973;28;20044;-20
2022/06/01 02:57:24;;;;;;;0.70;0.70;;;22.40;41.20;;;26.20;27.11;100936.75;5094030;28;20044;-20
2022/06/01 02:59:51;;;;;;;0.63;0.63;;;22.30;41.10;;;26.21;26.94;100941.09;5093957;28;20442;-19
2022/06/01 03:02:17;;;;;;;0.65;0.65;;;22.40;41.20;;;26.18;27.02;100944.06;5093018;28;20074;-20
2022/06/01 03:04:44;;;;;;;0.60;0.60;;;22.30;41.10;;;26.22;27.09;100949.03;5093762;28;20075;-20
2022/06/01 03:07:12;;;;;;;1.13;0.80;;;22.40;41.20;;;26.22;27.19;100945.50;5094062;28;20058;-19
2022/06/01 03:09:38;;;;;;;0.60;0.60;;;22.30;41.70;;;26.18;27.02;100939.56;5093764;28;20044;-20
2022/06/01 03:12:06;;;;;;;0.60;0.60;;;22.30;41.10;;;26.19;26.99;100932.34;5094049;28;20131;-19
2022/06/01 03:14:33;;;;;;;0.70;0.70;;;22.40;41.20;;;26.19;27.07;100935.03;5093311;28;20047;-19
2022/06/01 03:16:59;;;;;;;0.60;0.60;;;22.30;41.10;;;26.21;27.06;100933.06;5093421;28;20089;-20
2022/06/01 03:19:25;;;;;;;0.98;0.70;;;22.30;41.10;;;26.17;26.90;100920.91;5093395;28;20056;-20
2022/06/01 03:21:51;;;;;;;1.63;0.93;;;22.40;41.10;;;26.22;26.89;100927.56;5093626;28;20056;-20
2022/06/01 03:24:17;;;;;;;1.02;0.70;;;22.40;41.10;;;26.18;27.07;100920.78;5093823;28;20534;-19
2022/06/01 03:26:43;;;;;;;0.75;0.75;;;22.30;41.10;;;26.22;27.09;100919.53;5093392;28;20109;-19
2022/06/01 03:29:09;;;;;;;0.70;0.70;;;22.30;41.10;;;26.23;27.04;100923.09;5093309;28;20044;-20
2022/06/01 03:31:35;;;;;;;0.60;0.60;;;22.40;41.10;;;26.19;26.99;100919.78;5093981;28;20100;-20
2022/06/01 03:34:02;;;;;;;0.60;0.60;;;22.30;41.00;;;26.21;27.03;100919.66;5093871;28;20040;-20
2022/06/01 03:36:28;;;;;;;0.75;0.75;;;22.40;41.10;;;26.22;26.87;100913.34;5093663;28;20510;-19
2022/06/01 03:38:53;;;;;;;0.60;0.60;;;22.30;41.00;;;26.23;26.94;100918.56;5093851;28;20040;-20
2022/06/01 03:41:20;;;;;;;0.90;0.80;;;22.30;41.10;;;26.21;26.98;100914.31;5093114;28;20063;-19
2022/06/01 03:46:33;;;;;;;0.60;0.60;;;22.40;41.10;;;26.20;26.92;100926.88;5093042;28;20059;-19
2022/06/01 03:48:59;;;;;;;0.73;0.60;;;22.40;41.10;;;26.22;27.07;100934.78;5093219;28;20047;-19
2022/06/01 03:51:26;;;;;;;0.80;0.80;;;22.40;41.00;;;26.20;26.99;100920.66;5093755;28;20475;-20
2022/06/01 03:53:55;;;;;;;1.20;0.90;;;22.40;41.00;;;26.23;27.01;100926.63;5093170;28;20388;-20
2022/06/01 03:56:22;;;;;;;1.55;0.80;;;22.40;41.00;;;26.23;26.83;100934.66;5092965;28;20063;-20
2022/06/01 03:58:50;;;;;;;0.80;0.80;;;22.40;41.00;;;26.25;26.96;100930.00;5092829;28;20059;-19
2022/06/01 04:01:17;;;;;;;0.85;0.73;;;22.40;41.00;;;26.25;27.00;100923.81;5093009;28;20491;-20
2022/06/01 04:03:43;;;;;;;0.70;0.70;;;22.40;41.00;;;26.22;26.83;100914.19;5093049;28;20142;-20
2022/06/01 04:06:09;;;;;;;0.73;0.73;;;22.40;40.90;;;26.25;26.90;100919.28;5093135;28;20055;-19
2022/06/01 04:08:35;;;;;;;0.77;0.70;;;22.40;40.90;;;26.27;26.90;100915.63;5093153;28;20392;-20
2022/06/01 04:11:00;;;;;;;0.60;0.60;;;22.50;41.00;;;26.24;26.96;100912.25;5092887;28;20391;-19
2022/06/01 04:13:28;;;;;;;0.70;0.70;;;22.50;41.00;;;26.29;27.02;100916.34;5093243;28;20370;-20
2022/06/01 04:15:54;;;;;;;0.65;0.60;;;22.50;41.00;;;26.27;26.90;100911.13;5093343;28;20491;-19
2022/06/01 04:18:20;;;;;;;0.73;0.68;;;22.50;40.90;;;26.27;26.80;100910.28;5093324;28;20048;-19
2022/06/01 04:20:48;;;;;;;0.70;0.70;;;22.50;40.90;;;26.31;26.81;100909.03;5092495;28;20130;-20
2022/06/01 04:23:15;;;;;;;0.70;0.70;;;22.50;40.90;;;26.31;26.91;100906.34;5093350;28;20388;-20
2022/06/01 04:25:40;;;;;;;0.68;0.68;;;22.50;40.90;;;26.35;26.85;100918.53;5092676;28;20546;-19
2022/06/01 04:28:06;;;;;;;0.60;0.60;;;22.50;40.80;;;26.37;26.69;100924.59;5093083;28;20142;-20
2022/06/01 04:30:32;;;;;;;1.08;0.82;;;22.50;40.80;;;26.36;26.63;100926.44;5092607;28;20105;-20
2022/06/01 04:32:58;;;;;;;1.08;0.80;;;22.50;40.80;;;26.36;26.94;100918.41;5092447;28;20511;-20
2022/06/01 04:35:25;;;;;;;1.90;0.60;;;22.60;40.80;;;26.37;26.87;100919.25;5092504;28;20093;-19
2022/06/01 04:37:52;;;;;;;0.80;0.80;;;22.50;40.80;;;26.38;26.79;100927.16;5092412;28;20403;-19
2022/06/01 04:40:21;;;;;;;0.60;0.60;;;22.50;40.80;;;26.35;26.88;100922.06;5092485;28;20135;-19
2022/06/01 04:42:47;;;;;;;0.75;0.75;;;22.50;40.80;;;26.38;26.81;100927.16;5092720;28;20094;-20
2022/06/01 04:45:15;;;;;;;0.50;0.50;;;22.50;40.80;;;26.34;26.97;100928.38;5092324;28;20385;-19
2022/06/01 04:47:41;;;;;;;1.25;0.85;;;22.60;40.80;;;26.35;26.73;100927.41;5092386;28;21005;-20
2022/06/01 04:50:09;;;;;;;0.85;0.75;;;22.60;40.80;;;26.40;26.93;100935.06;5090962;28;20055;-19
2022/06/01 04:52:35;;;;;;;1.50;0.80;;;22.60;40.80;;;26.43;26.76;100940.19;5092577;28;20052;-20
2022/06/01 04:55:01;;;;;;;0.52;0.52;;;22.60;40.80;;;26.42;26.72;100941.16;5092840;28;20067;-20
2022/06/01 04:57:27;;;;;;;0.70;0.70;;;22.50;40.80;;;26.39;26.93;100939.56;5092230;28;20059;-19
2022/06/01 04:59:53;;;;;;;0.75;0.73;;;22.50;40.80;;;26.38;26.80;100940.56;5092234;28;20044;-20
2022/06/01 05:02:19;;;;;;;0.60;0.60;;;22.50;40.80;;;26.38;26.63;100945.06;5090771;28;20044;-20
2022/06/01 05:04:44;;;;;;;0.65;0.63;;;22.50;40.80;;;26.41;26.83;100951.03;5092470;28;20048;-20
2022/06/01 05:07:10;;;;;;;1.05;0.80;;;22.50;40.80;;;26.39;26.73;100950.28;5092113;28;20048;-20
2022/06/01 05:09:36;;;;;;;1.02;0.80;;;22.50;40.80;;;26.39;26.90;100963.69;5092358;28;20040;-20
2022/06/01 05:12:02;;;;;;;0.68;0.68;;;22.50;40.90;;;26.33;26.70;100955.31;5091965;28;20056;-19
2022/06/01 05:14:28;;;;;;;0.50;0.50;;;22.50;40.90;;;26.39;26.64;100971.72;5092022;28;20051;-20
2022/06/01 05:16:58;;;;;;;0.70;0.70;;;22.50;40.90;;;26.30;26.74;100952.91;5091704;28;20044;-19
2022/06/01 05:19:24;;;;;;;0.90;0.60;;;22.50;40.90;;;26.40;26.83;100981.50;5092241;28;20480;-19
2022/06/01 05:21:50;;;;;;;0.60;0.60;;;22.50;40.90;;;26.36;26.85;100977.38;5091907;28;20044;-20
2022/06/01 05:24:16;;;;;;;0.65;0.65;;;22.50;41.00;;;26.38;26.84;100979.91;5091905;28;20055;-20
2022/06/01 05:26:41;;;;;;;0.93;0.65;;;22.50;40.90;;;26.35;26.93;100982.88;5094003;28;20052;-20
2022/06/01 05:29:07;;;;;;;0.70;0.70;;;22.50;41.00;;;26.32;26.91;100975.06;5077454;28;20060;-19
2022/06/01 05:31:33;;;;;;;0.60;0.60;;;22.50;41.00;;;26.32;26.74;100980.44;5095307;28;20064;-20
2022/06/01 05:33:59;;;;;;;0.80;0.80;;;22.40;40.90;;;26.35;26.98;100997.13;5095465;28;20044;-19
2022/06/01 05:36:24;;;;;;;0.70;0.70;;;22.40;40.90;;;26.33;26.69;100983.00;5095161;28;20055;-19
2022/06/01 05:38:50;;;;;;;0.65;0.60;;;22.40;40.90;;;26.32;26.85;100993.84;5078430;28;20052;-20
2022/06/01 05:41:16;;;;;;;0.80;0.70;;;22.40;41.00;;;26.32;26.94;100991.16;5095201;28;20468;-20
2022/06/01 05:43:42;;;;;;;0.73;0.73;;;22.40;41.00;;;26.28;26.90;100995.06;5095437;28;20079;-20
2022/06/01 05:46:08;;;;;;;0.60;0.60;;;22.40;41.00;;;26.32;27.03;100997.38;5095267;28;20479;-19
2022/06/01 05:48:36;;;;;;;0.60;0.60;;;22.40;41.00;;;26.27;26.79;100996.06;5094959;28;20040;-20
2022/06/01 05:51:02;;;;;;;0.77;0.77;;;22.40;41.00;;;26.28;26.85;101006.66;5093729;28;20494;-20
2022/06/01 05:53:27;;;;;;;0.70;0.70;;;22.40;41.00;;;26.30;26.86;101007.38;5095378;28;20043;-19
2022/06/01 05:55:53;;;;;;;0.63;0.60;;;22.40;41.00;;;26.25;26.99;101005.06;5077020;28;20040;-19
2022/06/01 05:58:24;;;;;;;0.55;0.55;;;22.40;41.00;;;26.27;26.90;101006.78;5076551;28;20051;-20
2022/06/01 06:00:52;;;;;;;0.60;0.60;;;22.40;41.10;;;26.24;26.91;101007.84;5094896;28;20126;-20
2022/06/01 06:03:20;;;;;;;0.77;0.75;;;22.40;41.10;;;26.29;26.97;101020.91;5094536;28;20048;-19
2022/06/01 06:08:31;;;;;;;0.50;0.50;;;22.40;41.10;;;26.27;26.98;101023.69;5094543;28;20052;-20
2022/06/01 06:10:57;;;;;;;0.50;0.50;;;22.40;41.10;;;26.27;27.05;101025.53;5094416;28;20036;-19
2022/06/01 06:13:23;;;;;;;0.80;0.75;;;22.40;41.10;;;26.24;27.01;101021.25;5094756;28;20063;-20
2022/06/01 06:15:49;;;;;;;0.55;0.55;;;22.40;41.10;;;26.24;26.88;101026.63;5094202;28;20055;-19
2022/06/01 06:18:15;;;;;;;0.60;0.60;;;22.30;41.10;;;26.22;27.12;101017.88;5093903;28;20056;-20
2022/06/01 06:20:43;;;;;;;0.63;0.63;;;22.40;41.10;;;26.25;26.87;101028.34;5094271;28;20040;-19
2022/06/01 06:23:10;;;;;;;0.57;0.55;;;22.40;41.20;;;26.24;26.85;101032.84;5093736;28;20147;-19
2022/06/01 06:25:36;;;;;;;0.60;0.60;;;22.30;41.10;;;26.21;26.85;101025.06;5094564;28;20462;-20
2022/06/01 06:28:02;;;;;;;0.70;0.70;;;22.40;41.10;;;26.24;27.08;101035.53;5093824;28;20086;-19
2022/06/01 06:30:28;;;;;;;0.70;0.70;;;22.30;41.10;;;26.23;26.98;101035.66;5093927;28;20043;-20
2022/06/01 06:32:53;;;;;;;0.70;0.70;;;22.30;41.10;;;26.23;26.86;101039.19;5093860;28;20116;-18
2022/06/01 06:35:19;;;;;;;0.70;0.70;;;22.30;41.10;;;26.20;26.83;101038.59;5094045;28;20044;-19
2022/06/01 06:37:45;;;;;;;0.68;0.68;;;22.30;41.10;;;26.19;26.99;101026.16;5092623;28;20044;-20
2022/06/01 06:40:12;;;;;;;0.93;0.60;;;22.30;41.10;;;26.17;26.96;101033.47;5093968;28;20071;-19
2022/06/01 06:42:38;;;;;;;0.60;0.60;;;22.30;41.10;;;26.20;27.19;101035.91;5093523;28;20043;-19
2022/06/01 06:45:05;;;;;;;0.90;0.50;;;22.30;41.10;;;26.21;27.09;101032.22;5093678;28;20052;-19
2022/06/01 06:47:32;;;;;;;1.65;0.57;;;22.30;41.10;;;26.19;27.07;101026.16;5093528;28;20044;-19
2022/06/01 06:50:00;;;;;;;0.73;0.73;;;22.30;41.10;;;26.20;26.96;101018.00;5074671;28;20074;-19
2022/06/01 06:52:26;;;;;;;0.75;0.70;;;22.30;41.10;;;26.17;27.03;101004.84;5094070;28;20469;-19
2022/06/01 06:54:52;;;;;;;0.80;0.80;;;22.30;41.10;;;26.20;26.90;100995.69;5093635;28;20056;-19
2022/06/01 06:57:18;;;;;;;0.98;0.60;;;22.30;41.10;;;26.17;26.83;100988.75;5058628;28;20048;-19
2022/06/01 06:59:44;;;;;;;1.05;0.95;;;22.30;41.10;;;26.16;26.94;100992.44;5075079;28;20101;-19
2022/06/01 07:02:10;;;;;;;0.85;0.70;;;22.30;41.10;;;26.19;27.01;100999.34;5093396;28;20052;-19
2022/06/01 07:04:36;;;;;;;0.73;0.73;;;22.30;41.10;;;26.21;26.77;100994.72;5093502;28;20047;-20
2022/06/01 07:07:03;;;;;;;0.93;0.68;;;22.30;41.10;;;26.20;26.90;100990.34;5093105;28;20063;-19
2022/06/01 07:09:29;;;;;;;0.60;0.60;;;22.30;41.10;;;26.20;27.01;100971.59;5093314;28;20085;-19
2022/06/01 07:11:55;;;;;;;0.60;0.60;;;22.30;41.10;;;26.19;26.97;100960.00;5093303;28;20056;-19
2022/06/01 07:14:20;;;;;;;0.60;0.60;;;22.30;41.10;;;26.18;27.17;100958.31;5093540;28;20070;-19
2022/06/01 07:16:46;;;;;;;0.77;0.60;;;22.30;41.10;;;26.20;26.99;100969.75;5093371;28;20405;-19
2022/06/01 07:19:12;;;;;;;0.65;0.65;;;22.30;41.00;;;26.21;26.91;100973.25;5093310;28;20377;-19
2022/06/01 07:21:39;;;;;;;1.10;0.70;;;22.30;41.00;;;26.22;26.99;100973.13;5092780;28;20400;-20
2022/06/01 07:24:06;;;;;;;0.68;0.68;;;22.30;41.00;;;26.18;27.01;100969.03;5093226;28;20067;-19
2022/06/01 07:26:39;;;;;;;0.65;0.65;;;22.40;41.00;;;26.22;26.95;100966.94;5092944;28;20043;-19
2022/06/01 07:29:07;;;;;;;0.63;0.60;;;22.40;41.00;;;26.19;26.82;100962.66;5093247;28;20488;-19
2022/06/01 07:31:33;;;;;;;0.70;0.70;;;22.40;41.00;;;26.24;26.86;100973.03;5093055;28;20461;-19
2022/06/01 07:34:00;;;;;;;0.60;0.60;;;22.40;41.00;;;26.25;26.86;100972.06;5092826;28;20049;-19
2022/06/01 07:36:28;;;;;;;0.50;0.50;;;22.40;40.90;;;26.26;26.87;100979.09;5093076;28;20380;-19
2022/06/01 07:44:32;;;;;;;0.50;0.50;;;22.40;40.90;;;26.30;26.77;100991.28;5075596;28;20392;-20
2022/06/01 07:47:00;;;;;;;0.77;0.60;;;22.40;40.80;;;26.30;26.78;100990.44;5092818;28;20052;-20
2022/06/01 07:49:26;;;;;;;0.68;0.68;;;22.40;40.80;;;26.30;26.99;100979.72;5092420;28;20067;-20
2022/06/01 07:51:53;;;;;;;0.80;0.80;;;22.40;40.80;;;26.31;26.84;100984.09;5092784;28;20055;-21
2022/06/01 07:54:20;;;;;;;0.60;0.60;;;22.40;40.80;;;26.30;26.85;100988.59;5093053;28;20113;-20
2022/06/01 07:56:46;;;;;;;1.25;0.75;;;22.40;40.80;;;26.30;26.76;100977.88;5092713;28;20511;-20
2022/06/01 07:59:12;;;;;;;1.40;0.80;;;22.40;40.80;;;26.30;26.51;100985.91;5092585;28;20040;-20
2022/06/01 08:01:39;;;;;;;0.60;0.60;;;22.40;40.80;;;26.31;26.73;100987.63;5092377;28;20108;-20
2022/06/01 08:04:07;;;;;;;0.60;0.60;;;22.40;40.80;;;26.31;26.78;100986.75;5092530;28;20046;-20
2022/06/01 08:06:36;;;;;;;0.73;0.73;;;22.40;40.80;;;26.28;26.69;100987.88;5092569;28;20130;-21
2022/06/01 08:09:03;;;;;;;0.73;0.70;;;22.40;40.80;;;26.29;26.71;100988.72;5092434;28;20052;-20
2022/06/01 08:14:18;;;;;;;2.35;0.70;;;22.40;41.10;;;26.27;27.03;100996.88;5072537;28;20051;-20
2022/06/01 08:16:45;;;;;;;0.90;0.73;;;22.40;41.20;;;26.24;27.26;100989.97;5091936;28;20082;-19
2022/06/01 08:19:12;;;;;;;2.08;0.70;;;22.50;41.30;;;26.30;27.18;100996.66;5092093;28;20063;-18
2022/06/01 08:21:38;;;;;;;0.90;0.68;;;22.50;41.10;;;26.35;27.38;100997.13;5092052;28;20389;-21
2022/06/01 08:24:06;;;;;;;0.60;0.60;;;22.60;41.20;;;26.44;27.34;101003.53;5092050;28;20075;-20
2022/06/01 08:26:33;;;;;;;0.50;0.50;;;22.70;41.10;;;26.49;27.06;101006.69;5091918;28;20113;-20
2022/06/01 08:28:59;;;;;;;1.98;0.70;;;22.80;41.10;;;26.55;26.92;101016.91;5091985;28;20048;-20
2022/06/01 08:31:27;;;;;;;0.77;0.70;;;22.80;40.90;;;26.57;27.01;101006.06;5092089;28;20051;-20
2022/06/01 08:33:54;;;;;;;1.10;0.70;;;22.90;40.80;;;26.63;27.03;101013.63;5091789;28;20487;-20
2022/06/01 08:36:20;;;;;;;1.00;0.80;;;23.00;41.00;;;26.67;27.06;101012.38;5072317;28;20049;-20
2022/06/01 08:38:46;;;;;;;1.85;0.70;;;23.00;40.80;;;26.77;26.96;101020.50;5092333;28;20476;-20
2022/06/01 08:41:14;;;;;;;1.10;0.80;;;23.10;40.70;;;26.77;26.91;101009.78;5091588;28;20044;-20
2022/06/01 08:43:50;;;;;;;0.93;0.80;;;23.10;40.70;;;26.85;26.87;101014.47;5073750;28;20052;-20
2022/06/01 08:46:18;;;;;;;2.55;0.88;;;23.20;40.70;;;26.95;26.79;101018.94;5091742;28;20048;-20
2022/06/01 08:48:49;;;;;;;2.30;0.70;;;23.30;40.80;;;27.02;26.70;101031.84;5073324;28;20055;-19
2022/06/01 08:51:19;;;;;;;;;;;23.30;40.50;;;27.20;26.41;101027.56;5074181;28;20064;-21
2022/06/01 08:53:45;;;;;;;0.75;0.60;;;23.40;40.50;;;27.16;26.47;101021.63;5073112;28;19923;-20
2022/06/01 08:56:18;;;;;;;1.00;0.90;;;23.40;41.00;;;27.18;26.56;101024.16;5091594;28;20048;-20
2022/06/01 08:59:37;;;;;;;1.05;0.65;;;23.40;40.40;;;27.27;26.46;101019.84;5073815;28;20120;-20
2022/06/01 09:02:27;;;;;;;6.30;1.00;;;23.50;40.30;;;27.31;26.74;101021.28;5094160;28;20048;-20
2022/06/01 09:05:14;;;;;;;3.42;1.05;;;23.60;40.40;;;27.30;26.38;101019.63;5077223;28;20126;-20
2022/06/01 09:08:01;;;;;;;3.13;0.77;;;23.60;40.30;;;27.44;26.36;101019.25;5077089;28;20051;-21
2022/06/01 09:10:51;;;;;;;2.67;0.73;;;23.70;40.10;;;27.51;26.51;101020.41;5077438;28;20048;-21
2022/06/01 09:13:25;;;;;;;1.00;0.80;;;23.70;40.10;;;27.51;26.53;101015.03;5095173;28;20420;-20
2022/06/01 09:16:01;;;;;;;4.00;0.80;;;23.80;40.10;;;27.57;26.17;101013.66;5076906;28;20385;-21
2022/06/01 09:18:48;;;;;;;1.80;0.80;;;23.80;40.00;;;27.64;26.03;101013.97;5075775;28;20076;-21
2022/06/01 09:24:13;;;;;;;0.85;0.73;;;23.80;40.00;;;27.67;26.20;101019.91;5094927;28;20066;-20
2022/06/01 09:27:12;;;;;;;1.92;0.95;;;23.80;39.80;;;27.71;25.91;101023.19;5077402;28;20049;-20
2022/06/01 09:29:48;;;;;;;1.90;0.80;;;23.80;39.90;;;27.71;25.86;101028.56;5057767;28;20048;-20
2022/06/01 09:32:32;;;;;;;1.05;0.80;;;23.80;40.00;;;27.70;26.12;101032.25;5077269;28;20074;-20
2022/06/01 09:35:04;;;;;;;1.63;0.70;;;23.80;39.90;;;27.64;26.04;101030.09;5095083;28;20051;-21
2022/06/01 09:37:36;;;;;;;0.80;0.80;;;23.80;39.80;;;27.70;25.82;101042.97;5095179;28;20131;-21
2022/06/01 09:40:26;;;;;;;1.02;0.70;;;23.80;39.80;;;27.70;25.93;101035.78;5095019;28;20052;-21
2022/06/01 09:42:53;;;;;;;1.65;0.80;;;23.80;39.60;;;27.71;25.82;101036.59;5094978;28;20142;-21
2022/06/01 09:45:53;;;;;;;1.77;0.70;;;23.80;39.60;;;27.75;25.75;101045.25;5095557;28;20048;-21
2022/06/01 09:48:34;;;;;;;1.10;0.80;;;23.80;39.60;;;27.69;25.61;101039.44;5094777;28;20072;-21
2022/06/01 09:51:25;;;;;;;0.60;0.60;;;23.80;39.70;;;27.72;25.73;101049.06;5095231;28;20048;-20
2022/06/01 09:54:10;;;;;;;1.55;0.70;;;23.80;39.70;;;27.70;25.99;101041.13;5094800;28;20051;-21
2022/06/01 09:56:45;;;;;;;1.13;0.82;;;23.70;39.70;;;27.72;25.71;101041.84;5094807;28;20533;-21
2022/06/01 10:08:20;;;;;;;2.15;0.70;;;23.80;39.40;;;27.72;25.77;101033.78;5094612;28;20051;-21
2022/06/01 10:11:02;;;;;;;1.23;1.08;;;23.80;39.40;;;27.67;25.66;101025.28;5094549;28;20485;-20
2022/06/01 10:13:50;;;;;;;0.73;0.50;;;23.90;39.40;;;27.69;25.82;101030.53;5076182;28;20107;-20
2022/06/01 10:16:48;;;;;;;0.80;0.80;;;23.80;39.40;;;27.68;25.76;101029.69;5094516;28;20044;-20
2022/06/01 10:19:25;;;;;;;1.60;0.80;;;23.80;39.40;;;27.67;25.63;101027.97;5094052;28;20044;-21
2022/06/01 10:22:10;;;;;;;1.25;1.02;;;23.80;39.40;;;27.70;25.44;101038.44;5074434;28;20048;-20
2022/06/01 10:25:05;;;;;;;1.52;1.00;;;23.80;39.40;;;27.71;25.57;101026.69;5076191;28;20097;-22
2022/06/01 10:27:40;;;;;;;0.85;0.80;;;23.80;39.40;;;27.69;25.55;101027.84;5094103;28;20052;-22
2022/06/01 10:30:13;;;;;;;1.55;0.70;;;23.80;39.30;;;27.67;25.72;101025.28;5076090;28;20039;-22
2022/06/01 10:33:08;;;;;;;1.30;0.82;;;23.70;39.30;;;27.69;25.47;101020.63;5094103;28;20128;-19
2022/06/01 10:35:46;;;;;;;4.45;0.77;;;23.70;39.40;;;27.67;25.47;101025.28;5074108;28;20519;-20
2022/06/01 10:38:18;;;;;;;1.25;0.80;;;23.70;39.40;;;27.64;25.59;101022.88;5093717;28;20044;-19
2022/06/01 10:41:02;;;;;;;1.52;0.80;;;23.70;39.30;;;27.67;25.44;101025.28;5093833;28;20063;-19
2022/06/01 10:44:02;;;;;;;0.77;0.70;;;23.80;39.30;;;27.69;25.75;101014.41;5093831;28;20070;-20
2022/06/01 10:46:50;;;;;;;2.50;0.90;;;23.70;39.30;;;27.66;25.55;101007.47;5075469;28;20484;-19
2022/06/01 10:49:48;;;;;;;1.90;0.82;;;23.70;39.30;;;27.68;25.65;101015.38;5074689;28;20060;-20
2022/06/01 10:53:02;;;;;;;1.08;0.90;;;23.70;39.20;;;27.66;25.42;101014.69;5074575;28;20052;-20
2022/06/01 10:55:35;;;;;;;0.80;0.70;;;23.70;39.30;;;27.63;25.48;101006.88;5066565;28;20385;-21
2022/06/01 10:58:01;;;;;;;1.52;0.88;;;23.70;39.20;;;27.62;25.74;100995.28;5093737;28;20055;-21
2022/06/01 11:00:44;;;;;;;2.97;0.82;;;23.80;39.30;;;27.64;25.35;101003.22;5093708;28;20461;-22
2022/06/01 11:03:28;;;;;;;1.65;0.88;;;23.70;39.30;;;27.59;25.76;100989.34;5058699;28;20539;-20